Chachapoyas Airport
SPPY : now visible

Airfield :











YOU CAN JOIN US ON...

 
LOGIN :

Register | Disclaimer

   EN    FR    IT 

 









Legend :    VFR   Marginal VFR   IFR   Intensive IFR   Very Intensive IFR
Visi :
Ceiling :
>= 8 km
>= 3000ft
5 to 8 km
1000 to 3000 ft
1500m to 5 km
500 to 1000 ft
800 to 1500m
200 to 500 ft
< 800m
< 200 ft
Symbols :   Thunderstorms  Fog  Heavy snow  Heavy precipitations  Wind > 20 kt






- Airport Elevation : 8333 ft
- IATA code : CHH


SPPY - Chachapoyas

CURRENT METAR :
  • 061800Z 34013KT 9999 VCSH SCT012 BKN025 BKN050 16/11 Q1028 RMK PP000

EXPIRED METARs :
  • 061700Z 33009KT 9999 VCSH SCT010 BKN020 BKN040 16/11 Q1029 RMK PP000
  • 061600Z 34009KT 9999 FEW008 SCT020 BKN040 15/11 Q1029 RMK PP000

TAF N/A



MET'MAP, your aeronautical weather chart ! - Copyright ORBIFLY December 2007 - Disclaimer

ORBIFLY MET'MAP TEAM :

Programming & Development : Alexandra Zaïnal
Concept & original design : Baudouin d'Aumeries
Assistance for programming : Marc-Olivier Méhu
Technical & hardware support : Manuel Goepfert

Contact : metmap@orbifly.com




SOURCES & CREDITS :

   NOAA       Earth
Advisory